createdAt,value
2018-03-29T00:03:52.863Z,8.80
2018-03-29T00:06:20.872Z,8.70
2018-03-29T00:08:49.371Z,8.70
2018-03-29T00:13:44.380Z,8.60
2018-03-29T00:16:11.459Z,8.70
2018-03-29T00:18:39.440Z,8.80
2018-03-29T00:21:07.460Z,8.80
2018-03-29T00:23:34.534Z,8.90
2018-03-29T00:26:02.519Z,8.90
2018-03-29T00:28:29.568Z,8.90
2018-03-29T00:30:56.688Z,8.90
2018-03-29T00:33:24.554Z,9.00
2018-03-29T00:35:51.750Z,9.00
2018-03-29T00:41:00.169Z,9.90
2018-03-29T00:43:27.264Z,9.10
2018-03-29T00:48:21.435Z,9.10
2018-03-29T00:50:49.335Z,9.20
2018-03-29T00:53:28.115Z,9.20
2018-03-29T00:55:55.204Z,9.10
2018-03-29T00:58:23.218Z,9.10
2018-03-29T01:00:50.264Z,9.10
2018-03-29T01:03:17.344Z,9.20
2018-03-29T01:08:11.500Z,9.20
2018-03-29T01:10:38.584Z,9.20
2018-03-29T01:13:06.576Z,9.30
2018-03-29T01:15:33.627Z,9.30
2018-03-29T01:18:00.710Z,9.20
2018-03-29T01:20:27.771Z,9.20
2018-03-29T01:22:54.813Z,9.10
2018-03-29T01:25:22.755Z,8.90
2018-03-29T01:27:50.626Z,8.90
2018-03-29T01:30:19.160Z,8.80
2018-03-29T01:32:47.082Z,8.80
2018-03-29T01:35:14.142Z,8.70
2018-03-29T01:40:19.388Z,10.60
2018-03-29T01:42:46.430Z,8.90
2018-03-29T01:45:13.482Z,9.00
2018-03-29T01:47:40.583Z,8.90
2018-03-29T01:50:08.678Z,8.90
2018-03-29T01:52:35.689Z,8.70
2018-03-29T01:55:03.708Z,8.70
2018-03-29T01:57:30.758Z,8.60
2018-03-29T01:59:57.815Z,8.60
2018-03-29T02:02:24.919Z,8.50
2018-03-29T02:04:51.961Z,8.50
2018-03-29T02:07:19.012Z,8.50
2018-03-29T02:09:47.369Z,8.50
2018-03-29T02:12:15.346Z,8.60
2018-03-29T02:14:42.387Z,8.60
2018-03-29T02:17:09.500Z,8.60
2018-03-29T02:19:36.565Z,8.60
2018-03-29T02:22:04.429Z,8.50
2018-03-29T02:24:31.528Z,8.50
2018-03-29T02:26:59.469Z,8.50
2018-03-29T02:29:26.515Z,8.50
2018-03-29T02:31:53.587Z,8.60
2018-03-29T02:34:21.639Z,8.50
2018-03-29T02:36:49.652Z,8.60
2018-03-29T02:39:16.735Z,8.60
2018-03-29T02:41:43.785Z,8.60
2018-03-29T02:44:11.772Z,8.60
2018-03-29T02:46:39.828Z,8.70
2018-03-29T02:49:08.018Z,8.50
2018-03-29T02:51:35.737Z,8.40
2018-03-29T02:54:04.569Z,8.30
2018-03-29T02:56:31.618Z,8.20
2018-03-29T03:01:37.231Z,8.10
2018-03-29T03:04:04.259Z,8.20
2018-03-29T03:06:31.300Z,8.20
2018-03-29T03:08:58.347Z,8.30
2018-03-29T03:11:25.379Z,8.30
2018-03-29T03:13:52.426Z,8.30
2018-03-29T03:16:20.951Z,8.30
2018-03-29T03:18:48.515Z,8.30
2018-03-29T03:21:15.555Z,8.50
2018-03-29T03:23:42.658Z,8.60
2018-03-29T03:26:09.682Z,8.70
2018-03-29T03:28:37.263Z,8.80
2018-03-29T03:31:04.363Z,8.80
2018-03-29T03:40:52.947Z,8.80
2018-03-29T03:43:21.915Z,8.90
2018-03-29T03:45:49.016Z,9.00
2018-03-29T03:48:16.063Z,9.00
2018-03-29T03:50:43.094Z,8.90
2018-03-29T03:53:11.153Z,8.80
2018-03-29T03:58:06.685Z,8.70
2018-03-29T04:00:34.280Z,8.80
2018-03-29T04:03:02.586Z,8.80
2018-03-29T04:05:29.623Z,8.90
2018-03-29T04:07:56.705Z,8.90
2018-03-29T04:10:23.755Z,8.80
2018-03-29T04:12:50.821Z,8.50
2018-03-29T04:15:17.937Z,8.50
2018-03-29T04:17:45.775Z,8.50
2018-03-29T04:20:12.830Z,8.50
2018-03-29T04:22:39.901Z,8.40
2018-03-29T04:27:45.484Z,8.20
2018-03-29T04:30:12.618Z,8.20
2018-03-29T04:32:39.564Z,8.10
2018-03-29T04:35:06.668Z,7.80
2018-03-29T04:37:34.478Z,7.90
2018-03-29T04:40:01.529Z,7.70
2018-03-29T04:42:28.615Z,7.70
2018-03-29T04:44:55.649Z,7.70
2018-03-29T04:47:22.695Z,7.80
2018-03-29T04:49:49.801Z,7.70
2018-03-29T04:52:16.846Z,7.50
2018-03-29T04:57:11.087Z,7.50
2018-03-29T04:59:38.129Z,7.50
2018-03-29T05:02:06.162Z,7.50
2018-03-29T05:04:33.246Z,7.40
2018-03-29T05:12:09.696Z,7.40
2018-03-29T05:17:04.817Z,7.40
2018-03-29T05:19:31.869Z,7.40
2018-03-29T05:21:58.862Z,7.20
2018-03-29T05:24:25.911Z,7.40
2018-03-29T05:26:52.935Z,7.30
2018-03-29T05:29:19.996Z,7.20
2018-03-29T05:31:47.098Z,7.10
2018-03-29T05:34:14.112Z,7.00
2018-03-29T05:36:41.146Z,7.00
2018-03-29T05:39:08.225Z,7.10
2018-03-29T05:41:36.097Z,7.10
2018-03-29T05:44:10.063Z,7.00
2018-03-29T05:46:37.116Z,7.00
2018-03-29T05:49:04.157Z,7.00
2018-03-29T05:51:35.124Z,6.90
2018-03-29T05:54:00.255Z,7.00
2018-03-29T05:56:28.175Z,7.00
2018-03-29T05:58:55.242Z,7.00
2018-03-29T06:01:22.269Z,7.00
2018-03-29T06:03:49.324Z,6.90
2018-03-29T06:06:16.387Z,6.90
2018-03-29T06:08:43.420Z,6.90
2018-03-29T06:11:10.452Z,7.10
2018-03-29T06:13:37.559Z,6.90
2018-03-29T06:16:04.612Z,7.00
2018-03-29T06:18:31.668Z,6.90
2018-03-29T06:20:58.742Z,6.90
2018-03-29T06:23:25.772Z,6.90
2018-03-29T06:25:52.819Z,6.90
2018-03-29T06:28:19.924Z,6.80
2018-03-29T06:30:46.971Z,6.70
2018-03-29T06:35:53.520Z,6.60
2018-03-29T06:38:20.554Z,6.70
2018-03-29T06:40:47.691Z,6.70
2018-03-29T06:43:14.759Z,6.80
2018-03-29T06:45:41.808Z,6.80
2018-03-29T06:48:08.834Z,6.70
2018-03-29T06:50:35.930Z,6.60
2018-03-29T06:53:02.962Z,6.60
2018-03-29T06:55:30.012Z,6.60
2018-03-29T06:57:57.099Z,6.50
2018-03-29T07:00:24.965Z,6.50
2018-03-29T07:02:51.987Z,6.60
2018-03-29T07:05:20.049Z,6.60
2018-03-29T07:07:47.092Z,6.50
2018-03-29T07:10:15.095Z,6.50
2018-03-29T07:12:43.077Z,6.50
2018-03-29T07:15:10.112Z,6.50
2018-03-29T07:20:21.250Z,6.60
2018-03-29T07:22:49.262Z,6.40
2018-03-29T07:25:17.290Z,6.40
2018-03-29T07:27:44.352Z,6.30
2018-03-29T07:30:11.675Z,6.40
2018-03-29T07:32:39.654Z,6.30
2018-03-29T07:35:06.734Z,6.30
2018-03-29T07:37:33.770Z,6.40
2018-03-29T07:40:00.817Z,6.50
2018-03-29T07:42:28.309Z,6.40
2018-03-29T07:44:55.379Z,6.30
2018-03-29T07:47:22.432Z,6.30
2018-03-29T07:49:49.506Z,6.30
2018-03-29T07:52:16.557Z,6.30
2018-03-29T07:54:44.119Z,6.20
2018-03-29T07:57:11.207Z,6.20
2018-03-29T07:59:38.270Z,6.20
2018-03-29T08:02:06.693Z,6.30
2018-03-29T08:04:34.606Z,6.20
2018-03-29T08:07:01.653Z,6.20
2018-03-29T08:09:28.704Z,6.10
2018-03-29T08:11:55.773Z,6.20
2018-03-29T08:16:50.731Z,6.30
2018-03-29T08:19:18.683Z,6.30
2018-03-29T08:21:46.693Z,6.30
2018-03-29T08:24:14.702Z,6.30
2018-03-29T08:26:41.793Z,6.30
2018-03-29T08:29:08.855Z,6.30
2018-03-29T08:31:36.734Z,6.30
2018-03-29T08:34:03.825Z,6.30
2018-03-29T08:36:31.693Z,6.30
2018-03-29T08:38:58.766Z,6.30
2018-03-29T08:41:26.800Z,6.30
2018-03-29T08:43:55.666Z,6.30
2018-03-29T08:48:59.455Z,6.10
2018-03-29T08:51:26.818Z,6.20
2018-03-29T08:53:53.541Z,6.20
2018-03-29T08:56:22.502Z,6.20
2018-03-29T08:58:50.378Z,6.20
2018-03-29T09:01:17.422Z,6.30
2018-03-29T09:03:44.526Z,6.40
2018-03-29T09:06:11.575Z,6.50
2018-03-29T09:08:38.976Z,6.30
2018-03-29T09:11:06.915Z,6.20
2018-03-29T09:13:33.972Z,6.40
2018-03-29T09:18:39.566Z,6.40
2018-03-29T09:21:07.431Z,6.70
2018-03-29T09:23:34.419Z,6.60
2018-03-29T09:28:29.453Z,6.90
2018-03-29T09:30:57.068Z,6.90
2018-03-29T09:33:25.454Z,6.80
2018-03-29T09:40:47.192Z,6.70
2018-03-29T09:43:14.235Z,6.60
2018-03-29T09:45:41.294Z,6.70
2018-03-29T09:48:08.353Z,6.60
2018-03-29T09:50:36.407Z,6.50
2018-03-29T09:53:03.455Z,6.60
2018-03-29T09:55:31.553Z,6.70
2018-03-29T09:57:58.602Z,6.90
2018-03-29T10:00:26.940Z,6.80
2018-03-29T10:02:54.016Z,6.60
2018-03-29T10:10:16.215Z,6.60
2018-03-29T10:12:44.077Z,6.90
2018-03-29T10:15:11.130Z,6.90
2018-03-29T10:17:38.205Z,7.10
2018-03-29T10:20:06.192Z,7.00
2018-03-29T10:22:33.258Z,7.20
2018-03-29T10:25:00.356Z,7.10
2018-03-29T10:27:27.398Z,7.10
2018-03-29T10:29:55.390Z,6.90
2018-03-29T10:32:22.476Z,6.90
2018-03-29T10:34:49.520Z,7.00
2018-03-29T10:37:16.581Z,7.00
2018-03-29T10:42:22.144Z,7.00
2018-03-29T10:44:49.242Z,7.40
2018-03-29T10:47:16.285Z,7.50
2018-03-29T10:49:43.352Z,7.20
2018-03-29T10:54:39.370Z,7.00
2018-03-29T10:57:07.344Z,6.80
2018-03-29T10:59:34.447Z,6.70
2018-03-29T11:02:01.500Z,6.70
2018-03-29T11:04:28.544Z,6.80
2018-03-29T11:06:55.622Z,6.70
2018-03-29T11:09:23.599Z,6.50
2018-03-29T11:14:18.717Z,6.60
2018-03-29T11:16:47.108Z,6.70
2018-03-29T11:19:15.024Z,6.70
2018-03-29T11:21:42.126Z,6.80
2018-03-29T11:24:09.198Z,6.90
2018-03-29T11:26:36.246Z,7.10
2018-03-29T11:29:03.649Z,7.00
2018-03-29T11:33:57.728Z,7.10
2018-03-29T11:36:25.732Z,7.30
2018-03-29T11:38:52.775Z,7.40
2018-03-29T11:43:48.756Z,7.10
2018-03-29T11:46:15.803Z,7.00
2018-03-29T11:48:43.826Z,7.10
2018-03-29T11:53:38.848Z,7.00
2018-03-29T11:56:05.907Z,6.90
2018-03-29T11:58:33.975Z,6.90
2018-03-29T12:01:01.013Z,6.90
2018-03-29T12:03:28.061Z,7.00
2018-03-29T12:11:03.071Z,6.80
2018-03-29T12:13:30.932Z,6.80
2018-03-29T12:15:57.996Z,6.80
2018-03-29T12:18:28.607Z,6.80
2018-03-29T12:20:55.684Z,6.90
2018-03-29T12:23:23.668Z,6.90
2018-03-29T12:25:51.700Z,6.90
2018-03-29T12:28:19.690Z,6.80
2018-03-29T12:30:46.732Z,6.80
2018-03-29T12:33:13.820Z,6.70
2018-03-29T12:35:41.815Z,6.70
2018-03-29T12:38:08.876Z,6.80
2018-03-29T12:40:35.961Z,6.70
2018-03-29T12:43:02.992Z,6.80
2018-03-29T12:45:31.003Z,6.90
2018-03-29T12:47:58.103Z,6.80
2018-03-29T12:50:25.168Z,6.90
2018-03-29T12:52:52.192Z,7.00
2018-03-29T12:55:31.195Z,7.00
2018-03-29T12:58:10.092Z,7.00
2018-03-29T13:00:39.940Z,7.00
2018-03-29T13:03:06.984Z,7.20
2018-03-29T13:05:34.605Z,7.20
2018-03-29T13:08:01.687Z,7.20
2018-03-29T13:10:29.734Z,7.20
2018-03-29T13:12:56.797Z,7.30
2018-03-29T13:15:23.850Z,7.30
2018-03-29T13:17:50.900Z,7.40
2018-03-29T13:20:17.996Z,7.40
2018-03-29T13:22:45.991Z,7.50
2018-03-29T13:25:13.079Z,7.80
2018-03-29T13:27:41.444Z,8.00
2018-03-29T13:32:47.051Z,8.10
2018-03-29T13:35:14.117Z,8.10
2018-03-29T13:37:41.165Z,8.20
2018-03-29T13:40:08.279Z,8.10
2018-03-29T13:42:35.362Z,8.10
2018-03-29T13:45:04.049Z,8.30
2018-03-29T13:47:32.034Z,8.10
2018-03-29T13:49:59.104Z,8.30
2018-03-29T13:52:27.123Z,8.10
2018-03-29T13:55:00.809Z,8.10
2018-03-29T13:57:25.116Z,8.00
2018-03-29T13:59:52.141Z,7.70
2018-03-29T14:02:19.183Z,7.90
2018-03-29T14:04:46.274Z,7.90
2018-03-29T14:07:13.315Z,8.00
2018-03-29T14:09:40.363Z,7.70
2018-03-29T14:12:07.721Z,7.70
2018-03-29T14:14:34.765Z,7.80
2018-03-29T14:17:01.805Z,7.80
2018-03-29T14:19:28.920Z,7.80
2018-03-29T14:21:57.080Z,7.90
2018-03-29T14:24:24.132Z,7.90
2018-03-29T14:26:51.262Z,7.90
2018-03-29T14:29:18.302Z,7.90
2018-03-29T14:31:45.348Z,7.80
2018-03-29T14:36:40.401Z,7.60
2018-03-29T14:39:10.513Z,7.60
2018-03-29T14:41:37.646Z,7.50
2018-03-29T14:46:46.534Z,7.30
2018-03-29T14:49:13.559Z,7.50
2018-03-29T14:51:40.607Z,7.60
2018-03-29T14:54:07.782Z,7.70
2018-03-29T14:56:35.662Z,7.80
2018-03-29T14:59:02.717Z,7.90
2018-03-29T15:01:31.057Z,7.90
2018-03-29T15:03:58.116Z,7.80
2018-03-29T15:06:26.131Z,7.90
2018-03-29T15:08:54.157Z,7.90
2018-03-29T15:11:22.186Z,7.90
2018-03-29T15:13:50.195Z,7.80
2018-03-29T15:16:17.239Z,7.90
2018-03-29T15:18:45.215Z,7.80
2018-03-29T15:21:12.268Z,7.80
2018-03-29T15:23:42.330Z,7.90
2018-03-29T15:26:11.816Z,7.80
2018-03-29T15:28:39.861Z,7.80
2018-03-29T15:31:06.921Z,7.90
2018-03-29T15:33:33.970Z,7.90
2018-03-29T15:36:01.019Z,7.90
2018-03-29T15:40:55.241Z,7.70
2018-03-29T15:43:22.282Z,7.90
2018-03-29T15:45:49.371Z,7.80
2018-03-29T15:48:16.420Z,7.60
2018-03-29T15:50:44.489Z,7.70
2018-03-29T15:53:11.814Z,7.80
2018-03-29T15:55:38.847Z,7.90
2018-03-29T15:58:05.902Z,7.90
2018-03-29T16:00:33.664Z,7.70
2018-03-29T16:03:00.776Z,7.70
2018-03-29T16:08:06.377Z,9.40
2018-03-29T16:10:33.423Z,7.90
2018-03-29T16:13:00.489Z,7.90
2018-03-29T16:15:27.570Z,8.00
2018-03-29T16:17:54.611Z,7.90
2018-03-29T16:20:22.478Z,7.90
2018-03-29T16:22:49.543Z,7.80
2018-03-29T16:25:16.577Z,7.60
2018-03-29T16:30:10.781Z,7.40
2018-03-29T16:32:37.828Z,7.30
2018-03-29T16:35:04.876Z,7.20
2018-03-29T16:37:31.987Z,7.20
2018-03-29T16:39:59.872Z,7.20
2018-03-29T16:42:26.904Z,7.10
2018-03-29T16:44:53.974Z,7.20
2018-03-29T16:47:21.010Z,6.90
2018-03-29T16:49:48.047Z,6.60
2018-03-29T16:52:15.121Z,6.50
2018-03-29T16:54:42.147Z,6.40
2018-03-29T16:57:09.213Z,6.20
2018-03-29T17:02:03.419Z,5.90
2018-03-29T17:04:30.452Z,5.80
2018-03-29T17:06:57.516Z,5.80
2018-03-29T17:09:24.564Z,5.90
2018-03-29T17:11:51.602Z,5.60
2018-03-29T17:14:19.673Z,5.60
2018-03-29T17:16:46.814Z,5.60
2018-03-29T17:19:14.703Z,5.60
2018-03-29T17:21:42.732Z,5.40
2018-03-29T17:26:49.224Z,5.40
2018-03-29T17:29:17.214Z,5.40
2018-03-29T17:31:46.125Z,5.50
2018-03-29T17:34:14.133Z,5.50
2018-03-29T17:36:41.161Z,5.40
2018-03-29T17:39:08.195Z,5.40
2018-03-29T17:41:35.273Z,5.50
2018-03-29T17:44:05.387Z,5.50
2018-03-29T17:46:32.417Z,5.50
2018-03-29T17:48:59.504Z,5.50
2018-03-29T17:51:26.536Z,5.50
2018-03-29T17:53:53.582Z,5.50
2018-03-29T17:58:47.769Z,5.50
2018-03-29T18:01:15.571Z,5.50
2018-03-29T18:03:43.626Z,5.50
2018-03-29T18:06:11.600Z,5.40
2018-03-29T18:08:39.618Z,5.40
2018-03-29T18:11:06.692Z,5.50
2018-03-29T18:16:01.814Z,5.60
2018-03-29T18:18:29.014Z,5.80
2018-03-29T18:20:56.156Z,5.90
2018-03-29T18:23:23.971Z,5.90
2018-03-29T18:28:19.186Z,6.10
2018-03-29T18:33:14.301Z,6.20
2018-03-29T18:35:41.347Z,5.90
2018-03-29T18:38:08.403Z,5.80
2018-03-29T18:45:33.639Z,5.50
2018-03-29T18:48:00.708Z,5.50
2018-03-29T18:53:07.876Z,5.30
2018-03-29T18:58:03.002Z,5.30
2018-03-29T19:00:30.092Z,5.40
2018-03-29T19:02:57.142Z,5.30
2018-03-29T19:05:25.145Z,5.40
2018-03-29T19:07:52.232Z,5.40
2018-03-29T19:10:19.265Z,5.50
2018-03-29T19:12:46.304Z,5.50
2018-03-29T19:17:41.395Z,5.30
2018-03-29T19:20:08.440Z,5.30
2018-03-29T19:22:35.514Z,5.20
2018-03-29T19:27:29.737Z,5.10
2018-03-29T19:29:56.798Z,5.00
2018-03-29T19:32:23.861Z,5.10
2018-03-29T19:34:51.870Z,5.00
2018-03-29T19:39:46.935Z,5.00
2018-03-29T19:42:13.982Z,5.00
2018-03-29T19:44:42.320Z,4.90
2018-03-29T19:47:09.335Z,5.00
2018-03-29T19:49:37.073Z,5.00
2018-03-29T19:52:04.556Z,4.90
2018-03-29T19:54:34.594Z,4.90
2018-03-29T19:57:01.581Z,4.90
2018-03-29T19:59:29.662Z,4.70
2018-03-29T20:01:56.717Z,4.70
2018-03-29T20:04:23.793Z,4.80
2018-03-29T20:06:51.729Z,4.90
2018-03-29T20:09:19.157Z,5.00
2018-03-29T20:14:24.711Z,5.20
2018-03-29T20:16:51.861Z,5.40
2018-03-29T20:19:19.760Z,5.50
2018-03-29T20:21:47.739Z,5.40
2018-03-29T20:24:15.094Z,5.40
2018-03-29T20:26:42.184Z,5.40
2018-03-29T20:29:09.418Z,5.50
2018-03-29T20:31:36.473Z,5.40
2018-03-29T20:34:03.509Z,5.10
2018-03-29T20:36:31.465Z,5.00
2018-03-29T20:41:28.443Z,5.10
2018-03-29T20:43:55.580Z,5.20
2018-03-29T20:46:23.526Z,5.10
2018-03-29T20:48:50.642Z,5.20
2018-03-29T20:53:44.826Z,5.10
2018-03-29T20:56:11.877Z,5.00
2018-03-29T20:58:39.942Z,4.90
2018-03-29T21:01:07.467Z,4.90
2018-03-29T21:03:34.535Z,4.90
2018-03-29T21:06:01.629Z,4.90
2018-03-29T21:08:28.667Z,5.00
2018-03-29T21:10:56.592Z,4.90
2018-03-29T21:13:23.823Z,4.90
2018-03-29T21:15:50.863Z,4.90
2018-03-29T21:18:17.935Z,4.90
2018-03-29T21:20:45.846Z,5.00
2018-03-29T21:23:12.898Z,4.90
2018-03-29T21:25:39.941Z,4.90
2018-03-29T21:28:07.881Z,4.90
2018-03-29T21:30:35.001Z,4.90
2018-03-29T21:35:44.344Z,4.70
2018-03-29T21:38:11.399Z,4.80
2018-03-29T21:40:39.535Z,5.00
2018-03-29T21:43:06.714Z,5.00
2018-03-29T21:45:33.671Z,4.80
2018-03-29T21:48:00.719Z,4.80
2018-03-29T21:50:27.799Z,4.70
2018-03-29T21:52:54.844Z,4.70
2018-03-29T21:55:22.752Z,4.60
2018-03-29T21:57:50.667Z,4.60
2018-03-29T22:00:17.730Z,4.70
2018-03-29T22:02:47.721Z,4.70
2018-03-29T22:05:14.805Z,4.70
2018-03-29T22:07:41.859Z,4.80
2018-03-29T22:10:08.916Z,4.70
2018-03-29T22:15:03.154Z,4.60
2018-03-29T22:17:30.203Z,4.60
2018-03-29T22:19:57.311Z,4.50
2018-03-29T22:22:24.380Z,4.40
2018-03-29T22:24:51.411Z,4.50
2018-03-29T22:27:18.984Z,4.50
2018-03-29T22:29:48.564Z,4.40
2018-03-29T22:39:39.241Z,4.40
2018-03-29T22:42:06.330Z,4.40
2018-03-29T22:44:33.366Z,4.40
2018-03-29T22:49:40.376Z,4.40
2018-03-29T22:52:07.427Z,4.60
2018-03-29T22:54:34.472Z,4.70
2018-03-29T22:57:01.558Z,4.70
2018-03-29T22:59:28.629Z,4.70
2018-03-29T23:01:56.519Z,4.60
2018-03-29T23:04:24.433Z,4.70
2018-03-29T23:06:52.701Z,4.60
2018-03-29T23:09:19.753Z,4.60
2018-03-29T23:11:46.826Z,4.60
2018-03-29T23:14:13.874Z,4.70
2018-03-29T23:16:40.919Z,4.80
2018-03-29T23:19:08.026Z,4.80
2018-03-29T23:21:35.110Z,4.90
2018-03-29T23:24:03.123Z,5.00
2018-03-29T23:26:30.208Z,5.00
2018-03-29T23:28:57.253Z,5.00
2018-03-29T23:31:24.304Z,5.10
2018-03-29T23:33:51.404Z,5.20
2018-03-29T23:36:19.258Z,5.30
2018-03-29T23:38:46.293Z,5.20
2018-03-29T23:41:13.390Z,5.20
2018-03-29T23:43:40.442Z,5.10
2018-03-29T23:46:07.531Z,5.20
2018-03-29T23:48:34.619Z,5.30
2018-03-29T23:51:02.510Z,5.30
2018-03-29T23:53:29.851Z,5.30
2018-03-29T23:55:57.814Z,5.30
2018-03-29T23:58:24.859Z,5.30
